Time;durP1;ratioP1;P1;durP2;ratioP2;P2;SDS_P1;SDS_P2;PMS_P1;PMS_P2;Temp;Humidity;BMP_temperature;BMP_pressure;BME280_temperature;BME280_humidity;BME280_pressure;Samples;Min_cycle;Max_cycle;Signal;HPM_P1;HPM_P2
2023/03/25 00:01:12;;;;;;;0.85;0.50;;;11.70;99.90;;;;;;10060074;28;20128;-62
2023/03/25 00:06:06;;;;;;;4.25;0.93;;;11.70;99.90;;;;;;10061897;28;20021;-61
2023/03/25 00:10:58;;;;;;;0.57;0.32;;;11.70;99.90;;;;;;10061646;28;20072;-65
2023/03/25 00:15:56;;;;;;;1.70;0.35;;;11.70;99.90;;;;;;10061363;28;20116;-61
2023/03/25 00:20:52;;;;;;;3.17;0.65;;;11.70;99.90;;;;;;10068522;28;20025;-63
2023/03/25 00:25:43;;;;;;;2.60;0.57;;;11.70;99.90;;;;;;10064150;28;20061;-63
2023/03/25 00:30:37;;;;;;;1.70;0.50;;;11.80;99.90;;;;;;10053796;28;20326;-63
2023/03/25 00:35:27;;;;;;;0.82;0.30;;;11.80;99.90;;;;;;10058033;28;20049;-63
2023/03/25 00:40:18;;;;;;;1.85;0.50;;;11.70;99.90;;;;;;10060628;28;20032;-63
2023/03/25 00:45:11;;;;;;;1.80;0.68;;;11.60;99.90;;;;;;10061380;28;20036;-63
2023/03/25 00:50:02;;;;;;;0.68;0.20;;;11.60;99.90;;;;;;10060214;28;20022;-62
2023/03/25 00:54:53;;;;;;;2.03;0.40;;;11.60;99.90;;;;;;10060437;28;20068;-62
2023/03/25 00:59:43;;;;;;;0.50;0.38;;;11.70;99.90;;;;;;10059578;28;20057;-63
2023/03/25 01:04:38;;;;;;;0.30;0.20;;;11.60;99.90;;;;;;10059387;28;20053;-62
2023/03/25 01:09:29;;;;;;;0.65;0.30;;;11.70;99.90;;;;;;10059734;28;20033;-63
2023/03/25 01:14:23;;;;;;;0.57;0.50;;;11.70;99.90;;;;;;10058311;28;20033;-62
2023/03/25 01:19:14;;;;;;;2.08;0.43;;;11.70;99.90;;;;;;10059435;28;20116;-62
2023/03/25 01:24:06;;;;;;;0.85;0.40;;;11.70;99.90;;;;;;10061646;28;20025;-62
2023/03/25 01:28:57;;;;;;;0.28;0.17;;;11.50;99.90;;;;;;10057467;28;20175;-62
2023/03/25 01:33:48;;;;;;;0.77;0.40;;;11.30;99.90;;;;;;10058609;28;20043;-62
2023/03/25 01:38:40;;;;;;;1.63;1.25;;;10.70;99.90;;;;;;10058345;28;20511;-61
2023/03/25 01:43:32;;;;;;;0.25;0.13;;;10.00;99.90;;;;;;10058222;28;20029;-63
2023/03/25 01:48:34;;;;;;;0.40;0.20;;;10.10;99.90;;;;;;10058216;28;20040;-63
2023/03/25 01:53:29;;;;;;;0.52;0.10;;;10.20;99.90;;;;;;10056942;28;20025;-63
2023/03/25 01:58:22;;;;;;;0.68;0.20;;;10.30;99.90;;;;;;10057492;28;20040;-63
2023/03/25 02:03:15;;;;;;;0.57;0.30;;;10.30;99.90;;;;;;10056690;28;20275;-62
2023/03/25 02:08:08;;;;;;;1.58;0.73;;;10.20;99.90;;;;;;10057239;28;20020;-62
2023/03/25 02:12:58;;;;;;;0.10;0.10;;;10.20;99.90;;;;;;10057446;28;20033;-62
2023/03/25 02:18:22;;;;;;;0.40;0.17;;;10.10;99.90;;;;;;10056576;28;20261;-63
2023/03/25 02:23:27;;;;;;;0.65;0.40;;;10.20;99.90;;;;;;10050340;28;20104;-62
2023/03/25 02:28:28;;;;;;;0.90;0.22;;;10.20;99.90;;;;;;10051326;28;20136;-62
2023/03/25 02:33:45;;;;;;;0.63;0.10;;;10.20;99.90;;;;;;10057813;28;20191;-62
2023/03/25 02:38:54;;;;;;;0.40;0.28;;;10.20;99.90;;;;;;10056028;28;20040;-62
2023/03/25 02:43:53;;;;;;;1.85;0.32;;;10.30;99.90;;;;;;10056512;28;20045;-62
2023/03/25 02:48:50;;;;;;;0.45;0.35;;;10.60;99.90;;;;;;10055691;28;20103;-63
2023/03/25 02:53:44;;;;;;;0.80;0.40;;;10.90;99.90;;;;;;10056457;28;20033;-65
2023/03/25 02:58:37;;;;;;;0.80;0.40;;;10.90;99.90;;;;;;10056034;28;20330;-65
2023/03/25 03:03:27;;;;;;;1.27;0.40;;;11.00;99.90;;;;;;10054725;28;20037;-64
2023/03/25 03:08:42;;;;;;;1.08;0.30;;;11.00;99.90;;;;;;10056181;28;20522;-65
2023/03/25 03:14:17;;;;;;;0.25;0.25;;;11.00;99.90;;;;;;10070741;28;20025;-64
2023/03/25 03:19:19;;;;;;;1.05;0.40;;;11.00;99.90;;;;;;9969973;28;20481;-64
2023/03/25 03:24:55;;;;;;;1.77;0.55;;;11.10;99.90;;;;;;10040931;28;20088;-62
2023/03/25 03:29:54;;;;;;;1.70;0.40;;;11.20;99.90;;;;;;10036342;28;20045;-64
2023/03/25 03:34:50;;;;;;;4.50;0.63;;;11.20;99.90;;;;;;10050069;28;20109;-65
2023/03/25 03:39:42;;;;;;;0.65;0.60;;;11.20;99.90;;;;;;10054943;28;20026;-63
2023/03/25 03:44:38;;;;;;;1.50;0.50;;;11.20;99.90;;;;;;10055783;28;20269;-64
2023/03/25 03:49:34;;;;;;;;;;;11.00;99.90;;;;;;10055660;28;20494;-62
2023/03/25 03:54:34;;;;;;;0.73;0.47;;;11.10;99.90;;;;;;10059228;28;19983;-63
2023/03/25 03:59:40;;;;;;;1.85;0.60;;;11.10;99.90;;;;;;10060269;28;20056;-63
2023/03/25 04:04:33;;;;;;;;;;;11.10;99.90;;;;;;10062872;28;20056;-62
2023/03/25 04:09:39;;;;;;;3.60;0.70;;;11.20;99.90;;;;;;10061771;28;19905;-63
2023/03/25 04:14:31;;;;;;;1.15;0.63;;;11.20;99.90;;;;;;10061550;28;20116;-62
2023/03/25 04:19:22;;;;;;;1.17;0.50;;;11.20;99.90;;;;;;10051750;28;20111;-63
2023/03/25 04:24:15;;;;;;;0.77;0.35;;;11.10;99.90;;;;;;10064246;28;20017;-62
2023/03/25 04:29:07;;;;;;;0.82;0.43;;;11.10;99.90;;;;;;10059535;28;20045;-62
2023/03/25 04:33:59;;;;;;;1.50;0.60;;;11.10;99.90;;;;;;10061164;28;20021;-62
2023/03/25 04:38:51;;;;;;;1.15;0.77;;;11.20;99.90;;;;;;10060588;28;20052;-63
2023/03/25 04:43:43;;;;;;;2.08;0.38;;;11.20;99.90;;;;;;10061017;28;20029;-62
2023/03/25 04:48:40;;;;;;;3.28;0.50;;;11.30;99.90;;;;;;10059970;28;20027;-63
2023/03/25 04:53:31;;;;;;;1.98;0.63;;;11.20;99.90;;;;;;10060860;28;20037;-63
2023/03/25 04:58:21;;;;;;;3.67;0.52;;;11.20;99.90;;;;;;10059833;28;20124;-67
2023/03/25 05:03:14;;;;;;;1.20;0.60;;;11.20;99.90;;;;;;10064216;28;20030;-63
2023/03/25 05:08:05;;;;;;;0.50;0.40;;;11.00;99.90;;;;;;10058444;28;20017;-64
2023/03/25 05:13:01;;;;;;;1.65;0.50;;;11.00;99.90;;;;;;10059160;28;20478;-64
2023/03/25 05:17:51;;;;;;;1.50;0.63;;;10.90;99.90;;;;;;10058957;28;20029;-65
2023/03/25 05:22:44;;;;;;;2.13;0.40;;;10.80;99.90;;;;;;10059363;28;20037;-64
2023/03/25 05:27:35;;;;;;;0.60;0.32;;;10.60;99.90;;;;;;10060737;28;20175;-63
2023/03/25 05:32:33;;;;;;;1.08;0.60;;;10.60;99.90;;;;;;10046535;28;20163;-62
2023/03/25 05:37:24;;;;;;;0.73;0.28;;;10.60;99.90;;;;;;10058305;28;20037;-62
2023/03/25 05:42:15;;;;;;;1.17;0.57;;;10.60;99.90;;;;;;10057938;28;20408;-62
2023/03/25 05:47:06;;;;;;;1.48;0.40;;;10.50;99.90;;;;;;10058669;28;20484;-63
2023/03/25 05:51:58;;;;;;;0.52;0.35;;;10.50;99.90;;;;;;10058117;28;20033;-63
2023/03/25 05:56:49;;;;;;;0.85;0.40;;;10.50;99.90;;;;;;10058165;28;20476;-63
2023/03/25 06:01:44;;;;;;;1.70;0.47;;;10.50;99.90;;;;;;10061371;28;20025;-61
2023/03/25 06:06:35;;;;;;;1.27;0.50;;;10.40;99.90;;;;;;10057174;28;20033;-63
2023/03/25 06:11:25;;;;;;;2.97;1.48;;;10.40;99.90;;;;;;10057228;28;20026;-62
2023/03/25 06:16:21;;;;;;;1.23;0.25;;;10.40;99.90;;;;;;10056346;28;20037;-62
2023/03/25 06:21:12;;;;;;;1.38;0.30;;;10.40;99.90;;;;;;10057067;28;20021;-63
2023/03/25 06:26:03;;;;;;;2.47;0.38;;;10.40;99.90;;;;;;10059273;28;20061;-62
2023/03/25 06:30:54;;;;;;;0.60;0.30;;;10.40;99.90;;;;;;10056074;28;20013;-62
2023/03/25 06:35:52;;;;;;;0.25;0.10;;;10.40;99.90;;;;;;10056167;28;20045;-63
2023/03/25 06:40:43;;;;;;;2.95;0.57;;;10.50;99.90;;;;;;10056590;28;20038;-63
2023/03/25 06:45:33;;;;;;;0.45;0.32;;;10.50;99.90;;;;;;10057364;28;20495;-63
2023/03/25 06:50:24;;;;;;;0.98;0.32;;;10.40;99.90;;;;;;10054519;28;20087;-64
2023/03/25 06:55:15;;;;;;;2.85;0.47;;;10.50;99.90;;;;;;10056477;28;20056;-64
2023/03/25 07:00:07;;;;;;;3.05;0.40;;;10.60;99.90;;;;;;10055943;28;20049;-65
2023/03/25 07:04:58;;;;;;;0.75;0.40;;;10.70;99.90;;;;;;10056283;28;20078;-62
2023/03/25 07:09:53;;;;;;;0.80;0.57;;;10.60;99.90;;;;;;10059501;28;20481;-63
2023/03/25 07:14:49;;;;;;;;;;;10.50;99.90;;;;;;10055430;28;20068;-63
2023/03/25 07:19:40;;;;;;;1.47;0.40;;;10.40;99.90;;;;;;10054696;28;19979;-64
2023/03/25 07:24:30;;;;;;;3.72;0.52;;;10.30;99.90;;;;;;10065999;28;20049;-64
2023/03/25 07:29:22;;;;;;;1.60;0.32;;;10.30;99.90;;;;;;10059127;28;20516;-63
2023/03/25 07:34:12;;;;;;;1.17;0.32;;;10.30;99.90;;;;;;10063962;28;20032;-64
2023/03/25 07:39:03;;;;;;;1.15;0.40;;;10.30;99.90;;;;;;10062570;28;20046;-63
2023/03/25 07:43:54;;;;;;;2.75;0.47;;;10.30;99.90;;;;;;10063629;28;20018;-64
2023/03/25 07:48:45;;;;;;;1.88;0.50;;;10.40;99.90;;;;;;10062875;28;20079;-63
2023/03/25 07:53:37;;;;;;;0.68;0.40;;;10.50;99.90;;;;;;10066754;28;20115;-62
2023/03/25 07:58:28;;;;;;;1.15;0.47;;;10.70;99.90;;;;;;10062164;28;20044;-64
2023/03/25 08:03:19;;;;;;;0.93;0.40;;;10.80;99.90;;;;;;10062365;28;20040;-62
2023/03/25 08:08:10;;;;;;;1.98;0.60;;;10.90;99.90;;;;;;10061662;28;20468;-63
2023/03/25 08:13:01;;;;;;;1.30;0.50;;;11.10;99.90;;;;;;10061831;28;20108;-63
2023/03/25 08:17:52;;;;;;;1.27;1.20;;;11.10;99.90;;;;;;10060894;28;20034;-64
2023/03/25 08:22:46;;;;;;;1.40;0.70;;;11.10;99.90;;;;;;10061643;28;20366;-63
2023/03/25 08:27:37;;;;;;;0.57;0.40;;;11.20;99.90;;;;;;10063732;28;20064;-62
2023/03/25 08:32:29;;;;;;;1.20;0.93;;;11.30;99.90;;;;;;10063696;28;20468;-62
2023/03/25 08:37:20;;;;;;;3.40;1.13;;;11.50;99.90;;;;;;10060441;28;20374;-64
2023/03/25 08:42:12;;;;;;;1.05;0.70;;;11.70;99.90;;;;;;10060356;28;20035;-63
2023/03/25 08:47:03;;;;;;;2.63;0.65;;;11.90;99.90;;;;;;10067125;28;20623;-63
2023/03/25 08:51:56;;;;;;;0.45;0.40;;;12.10;99.90;;;;;;10060221;28;20248;-65
2023/03/25 08:56:47;;;;;;;1.10;1.00;;;12.20;99.90;;;;;;10059731;28;20483;-63
2023/03/25 09:01:38;;;;;;;0.85;0.50;;;12.20;99.90;;;;;;10059508;28;20030;-63
2023/03/25 09:06:28;;;;;;;4.43;1.00;;;12.30;99.90;;;;;;10059128;28;20507;-67
2023/03/25 09:11:19;;;;;;;0.75;0.40;;;12.40;99.90;;;;;;10059540;28;20022;-64
2023/03/25 09:16:09;;;;;;;1.23;0.50;;;12.60;99.90;;;;;;10061310;28;20507;-63
2023/03/25 09:21:00;;;;;;;1.77;0.50;;;12.60;99.90;;;;;;10057289;28;20025;-63
2023/03/25 09:25:51;;;;;;;1.35;0.35;;;12.60;99.90;;;;;;10061404;28;20056;-64
2023/03/25 09:30:41;;;;;;;0.50;0.40;;;12.60;99.90;;;;;;10064896;28;20029;-63
2023/03/25 09:35:32;;;;;;;1.83;0.55;;;12.80;99.90;;;;;;10058399;28;20223;-64
2023/03/25 09:40:23;;;;;;;1.38;0.50;;;12.90;99.90;;;;;;10058203;28;20492;-63
2023/03/25 09:45:43;;;;;;;1.10;0.50;;;13.10;99.90;;;;;;10058325;28;20567;-63
2023/03/25 09:50:35;;;;;;;0.60;0.38;;;13.10;99.90;;;;;;10057629;28;20018;-62
2023/03/25 09:55:31;;;;;;;2.30;0.68;;;13.60;99.90;;;;;;10056203;28;20404;-64
2023/03/25 10:00:22;;;;;;;;;;;13.90;99.90;;;;;;10061279;28;20025;-63
2023/03/25 10:05:19;;;;;;;2.85;0.50;;;14.00;99.90;;;;;;10057826;28;19958;-63
2023/03/25 10:10:25;;;;;;;1.63;0.60;;;13.90;99.90;;;;;;10056635;28;20108;-62
2023/03/25 10:15:34;;;;;;;1.20;0.60;;;14.10;99.90;;;;;;10055207;28;20045;-62
2023/03/25 10:20:48;;;;;;;1.17;0.47;;;14.60;99.90;;;;;;10056869;28;20029;-63
2023/03/25 10:25:44;;;;;;;0.77;0.40;;;14.70;99.90;;;;;;10058633;28;20563;-62
2023/03/25 10:30:40;;;;;;;1.95;0.32;;;14.30;99.90;;;;;;10054426;28;20026;-62
2023/03/25 10:35:39;;;;;;;1.70;1.08;;;14.00;99.90;;;;;;10056248;28;20048;-64
2023/03/25 10:40:33;;;;;;;3.58;0.57;;;13.90;99.90;;;;;;10057090;28;20120;-63
2023/03/25 10:45:27;;;;;;;1.10;0.55;;;13.70;99.90;;;;;;10056199;28;20089;-64
2023/03/25 10:50:19;;;;;;;0.80;0.40;;;13.40;99.90;;;;;;10054559;28;20155;-63
2023/03/25 10:55:24;;;;;;;2.53;0.65;;;13.40;99.90;;;;;;10062323;28;20120;-63
2023/03/25 11:00:22;;;;;;;1.13;0.63;;;13.40;99.90;;;;;;10047557;28;20037;-63
2023/03/25 11:05:18;;;;;;;1.08;0.60;;;13.50;99.90;;;;;;10061479;28;20060;-63
2023/03/25 11:10:12;;;;;;;1.55;1.00;;;13.50;99.90;;;;;;10067048;28;20033;-63
2023/03/25 11:15:04;;;;;;;0.90;0.70;;;13.50;99.90;;;;;;10063342;28;20090;-64
2023/03/25 11:20:00;;;;;;;4.05;1.10;;;13.70;99.90;;;;;;10063280;28;20021;-64
2023/03/25 11:25:06;;;;;;;2.85;0.80;;;13.60;99.90;;;;;;10066342;28;20468;-64
2023/03/25 11:30:04;;;;;;;1.55;0.80;;;13.60;99.90;;;;;;10062787;28;20029;-66
2023/03/25 11:34:54;;;;;;;2.97;1.67;;;13.50;99.90;;;;;;10064298;28;20033;-63
2023/03/25 11:39:55;;;;;;;3.20;0.93;;;13.40;99.90;;;;;;10067256;28;20045;-64
2023/03/25 11:44:52;;;;;;;0.73;0.50;;;13.20;99.90;;;;;;10062729;28;20366;-63
2023/03/25 11:49:48;;;;;;;1.50;0.95;;;13.30;99.90;;;;;;10062200;28;20039;-64
2023/03/25 11:54:40;;;;;;;0.90;0.70;;;13.30;99.90;;;;;;10062067;28;20515;-63
2023/03/25 11:59:59;;;;;;;1.38;0.80;;;13.90;99.90;;;;;;10061782;28;20025;-63
2023/03/25 12:05:07;;;;;;;2.53;0.60;;;14.40;99.60;;;;;;10064031;28;20032;-63
2023/03/25 12:10:04;;;;;;;2.92;0.88;;;14.00;99.90;;;;;;10061465;28;20037;-63
2023/03/25 12:15:06;;;;;;;0.93;0.55;;;13.80;99.90;;;;;;10061270;28;20590;-62
2023/03/25 12:19:57;;;;;;;2.08;0.52;;;13.80;99.90;;;;;;10065058;28;20104;-64
2023/03/25 12:25:16;;;;;;;0.63;0.45;;;14.00;99.80;;;;;;10063699;28;20417;-63
2023/03/25 12:30:36;;;;;;;2.30;0.88;;;14.10;99.40;;;;;;10060590;28;20563;-64
2023/03/25 12:35:46;;;;;;;4.53;0.65;;;14.40;99.20;;;;;;10060508;28;20045;-63
2023/03/25 12:40:57;;;;;;;1.90;0.80;;;15.00;99.00;;;;;;10060474;28;20013;-63
2023/03/25 12:46:19;;;;;;;4.22;1.60;;;15.50;98.70;;;;;;10055152;28;20026;-62
2023/03/25 12:51:37;;;;;;;4.03;1.25;;;15.30;98.10;;;;;;10059361;28;20033;-61
2023/03/25 12:56:46;;;;;;;1.92;0.75;;;15.40;98.40;;;;;;10060212;28;20073;-63
2023/03/25 13:01:49;;;;;;;3.03;0.60;;;15.70;97.80;;;;;;10066490;28;20419;-63
2023/03/25 13:06:52;;;;;;;1.15;1.05;;;16.00;98.00;;;;;;10059136;28;20033;-63
2023/03/25 13:11:50;;;;;;;2.35;0.80;;;16.70;97.70;;;;;;10057929;28;20036;-64
2023/03/25 13:16:44;;;;;;;2.30;0.60;;;16.90;97.80;;;;;;10058926;28;20092;-63
2023/03/25 13:21:40;;;;;;;4.23;1.47;;;17.00;98.10;;;;;;10059101;28;20029;-64
2023/03/25 13:26:31;;;;;;;4.25;0.90;;;17.30;97.70;;;;;;10060233;28;20499;-63
2023/03/25 13:31:27;;;;;;;3.13;0.88;;;17.60;97.10;;;;;;10060951;28;20021;-62
2023/03/25 13:36:37;;;;;;;1.70;0.75;;;18.60;96.50;;;;;;10057930;28;20045;-63
2023/03/25 13:41:42;;;;;;;3.67;0.77;;;18.90;94.70;;;;;;10059804;28;20029;-63
2023/03/25 13:46:50;;;;;;;1.77;0.68;;;19.90;93.40;;;;;;10057939;28;20104;-61
2023/03/25 13:51:40;;;;;;;0.77;0.50;;;17.20;93.70;;;;;;10058501;28;20025;-62
2023/03/25 13:57:01;;;;;;;1.88;0.75;;;16.30;93.80;;;;;;10066906;28;20563;-62
2023/03/25 14:02:20;;;;;;;1.73;0.63;;;16.20;93.80;;;;;;10052318;28;20096;-65
2023/03/25 14:07:34;;;;;;;2.58;0.50;;;17.70;93.70;;;;;;10057256;28;20212;-67
2023/03/25 14:12:32;;;;;;;2.20;0.73;;;18.60;93.30;;;;;;10056261;28;20057;-64
2023/03/25 14:17:23;;;;;;;0.98;0.80;;;18.90;93.70;;;;;;10055596;28;20690;-66
2023/03/25 14:22:26;;;;;;;2.45;0.80;;;19.60;93.30;;;;;;10070913;28;20028;-63
2023/03/25 14:27:30;;;;;;;3.15;0.70;;;19.70;92.60;;;;;;10059393;28;20049;-62
2023/03/25 14:32:20;;;;;;;3.80;0.83;;;19.60;91.80;;;;;;10056627;28;20124;-63
2023/03/25 14:37:26;;;;;;;0.60;0.40;;;18.40;92.40;;;;;;10056820;28;20112;-62
2023/03/25 14:42:41;;;;;;;1.20;0.50;;;17.30;92.70;;;;;;10062461;28;20045;-63
2023/03/25 14:47:34;;;;;;;1.20;0.60;;;19.60;91.30;;;;;;10055846;28;20029;-63
2023/03/25 14:52:31;;;;;;;1.77;0.90;;;20.00;91.20;;;;;;10056943;28;20403;-63
2023/03/25 14:57:24;;;;;;;1.92;0.50;;;19.30;91.10;;;;;;10054123;28;20047;-64
2023/03/25 15:02:20;;;;;;;2.00;0.82;;;18.50;91.20;;;;;;10055652;28;20019;-63
2023/03/25 15:07:17;;;;;;;1.40;0.80;;;17.40;91.20;;;;;;10059650;28;20060;-63
2023/03/25 15:12:14;;;;;;;2.53;0.55;;;18.10;90.70;;;;;;10050899;28;20017;-65
2023/03/25 15:17:09;;;;;;;2.50;1.10;;;18.30;91.40;;;;;;10055386;28;20034;-65
2023/03/25 15:22:01;;;;;;;1.95;1.13;;;23.10;88.00;;;;;;10055520;28;20579;-63
2023/03/25 15:26:57;;;;;;;2.50;0.63;;;22.50;87.50;;;;;;10057816;28;20068;-63
2023/03/25 15:32:01;;;;;;;3.20;0.85;;;22.00;86.90;;;;;;10049773;28;20649;-63
2023/03/25 15:37:01;;;;;;;3.53;0.75;;;25.20;80.80;;;;;;10059531;28;20504;-63
2023/03/25 15:42:23;;;;;;;1.65;0.63;;;25.60;74.00;;;;;;10055770;28;20138;-64
2023/03/25 15:47:34;;;;;;;0.65;0.43;;;26.00;71.80;;;;;;10054940;28;20025;-63
2023/03/25 15:52:52;;;;;;;3.15;0.63;;;25.10;71.90;;;;;;10065260;28;20452;-63
2023/03/25 15:58:08;;;;;;;2.88;0.80;;;23.20;69.40;;;;;;10061830;28;20044;-63
2023/03/25 16:03:04;;;;;;;2.95;1.05;;;21.20;72.90;;;;;;10040998;28;20031;-63
2023/03/25 16:07:58;;;;;;;2.35;0.57;;;21.10;72.00;;;;;;10060297;28;20109;-65
2023/03/25 16:12:49;;;;;;;1.97;0.80;;;20.60;71.50;;;;;;10060204;28;20043;-63
2023/03/25 16:17:42;;;;;;;2.83;0.75;;;20.00;72.00;;;;;;10059884;28;20053;-64
2023/03/25 16:22:36;;;;;;;2.15;0.68;;;18.80;73.00;;;;;;10059865;28;20037;-63
2023/03/25 16:27:41;;;;;;;4.03;0.80;;;18.40;73.20;;;;;;10063399;28;20063;-63
2023/03/25 16:32:32;;;;;;;;;;;16.60;75.60;;;;;;10050370;28;20037;-63
2023/03/25 16:37:24;;;;;;;2.50;0.68;;;15.80;77.00;;;;;;10060197;28;19913;-62
2023/03/25 16:42:34;;;;;;;2.75;0.65;;;15.80;77.30;;;;;;10060362;28;20022;-62
2023/03/25 16:47:24;;;;;;;2.42;0.70;;;16.50;77.30;;;;;;10067836;28;20056;-63
2023/03/25 16:52:19;;;;;;;0.93;0.47;;;20.00;73.20;;;;;;10059817;28;20461;-63
2023/03/25 16:57:15;;;;;;;;;;;20.70;72.60;;;;;;10059727;28;20034;-63
2023/03/25 17:02:23;;;;;;;1.15;0.40;;;20.80;72.00;;;;;;10060716;28;19968;-62
2023/03/25 17:07:19;;;;;;;3.42;1.33;;;20.30;73.20;;;;;;10060287;28;20025;-63
2023/03/25 17:12:18;;;;;;;1.27;0.50;;;17.80;76.40;;;;;;10058604;28;20472;-63
2023/03/25 17:17:18;;;;;;;1.63;0.70;;;16.40;78.30;;;;;;10054714;28;20391;-64
2023/03/25 17:22:16;;;;;;;2.38;0.65;;;15.40;79.70;;;;;;10057390;28;20476;-63
2023/03/25 17:27:31;;;;;;;0.80;0.52;;;15.30;79.60;;;;;;10061019;28;20106;-64
2023/03/25 17:32:22;;;;;;;1.92;0.70;;;15.20;79.60;;;;;;10059262;28;20030;-63
2023/03/25 17:37:14;;;;;;;1.77;0.82;;;15.00;79.80;;;;;;10058349;28;20392;-61
2023/03/25 17:42:12;;;;;;;1.90;0.68;;;14.90;80.20;;;;;;10058498;28;20028;-64
2023/03/25 17:47:05;;;;;;;2.85;0.90;;;14.60;80.80;;;;;;10057580;28;20032;-66
2023/03/25 17:51:57;;;;;;;2.28;0.77;;;14.40;81.60;;;;;;10057754;28;20396;-65
2023/03/25 17:56:47;;;;;;;1.67;0.50;;;14.20;82.20;;;;;;10057987;28;20045;-63
2023/03/25 18:01:38;;;;;;;1.35;0.85;;;14.20;82.90;;;;;;10057504;28;20412;-66
2023/03/25 18:06:30;;;;;;;0.93;0.80;;;14.00;83.70;;;;;;10057396;28;20064;-67
2023/03/25 18:11:21;;;;;;;1.27;0.70;;;14.00;84.30;;;;;;10059834;28;20021;-64
2023/03/25 18:16:11;;;;;;;2.72;0.90;;;13.80;85.40;;;;;;10057065;28;20447;-66
2023/03/25 18:21:03;;;;;;;2.60;0.80;;;13.70;86.00;;;;;;10056930;28;20025;-63
2023/03/25 18:25:54;;;;;;;2.53;0.98;;;13.70;86.70;;;;;;10063065;28;20182;-64
2023/03/25 18:30:51;;;;;;;2.20;1.15;;;13.60;87.50;;;;;;10057799;28;20460;-65
2023/03/25 18:35:42;;;;;;;1.33;0.63;;;12.90;89.90;;;;;;10056145;28;20073;-62
2023/03/25 18:40:35;;;;;;;0.82;0.40;;;12.00;92.20;;;;;;10061223;28;20385;-63
2023/03/25 18:45:26;;;;;;;2.03;0.60;;;12.00;93.10;;;;;;10056161;28;20484;-64
2023/03/25 18:50:26;;;;;;;1.75;0.82;;;12.10;93.50;;;;;;10056497;28;20022;-63
2023/03/25 18:55:17;;;;;;;2.05;0.82;;;12.50;93.60;;;;;;10055682;28;20085;-62
2023/03/25 19:00:20;;;;;;;2.88;1.23;;;12.70;93.70;;;;;;10056368;28;20064;-64
2023/03/25 19:05:11;;;;;;;0.88;0.63;;;12.90;93.90;;;;;;10057440;28;20195;-63
2023/03/25 19:10:03;;;;;;;2.72;0.70;;;12.80;94.10;;;;;;10058100;28;20403;-64
2023/03/25 19:14:53;;;;;;;1.98;1.10;;;13.00;94.40;;;;;;10055685;28;20156;-66
2023/03/25 19:19:44;;;;;;;2.90;1.23;;;13.10;94.50;;;;;;10057563;28;20158;-62
2023/03/25 19:24:35;;;;;;;2.55;1.88;;;13.20;94.70;;;;;;10061554;28;20025;-63
2023/03/25 19:29:26;;;;;;;3.47;0.90;;;13.30;94.80;;;;;;10062761;28;20050;-64
2023/03/25 19:34:17;;;;;;;2.42;1.02;;;13.30;95.40;;;;;;10071609;28;20465;-65
2023/03/25 19:39:09;;;;;;;2.50;0.90;;;13.30;95.50;;;;;;10062543;28;20041;-62
2023/03/25 19:44:00;;;;;;;3.03;1.38;;;13.30;95.70;;;;;;10062594;28;20064;-63
2023/03/25 19:48:51;;;;;;;1.63;0.82;;;13.40;95.80;;;;;;10075034;28;20033;-64
2023/03/25 19:53:42;;;;;;;4.50;1.30;;;13.30;96.40;;;;;;10062520;28;20250;-64
2023/03/25 19:58:33;;;;;;;1.13;0.73;;;13.30;96.30;;;;;;10061797;28;20037;-62
2023/03/25 20:03:25;;;;;;;4.35;1.15;;;13.30;96.30;;;;;;10065945;28;20032;-62
2023/03/25 20:08:15;;;;;;;1.40;0.75;;;13.30;96.40;;;;;;10061967;28;20049;-63
2023/03/25 20:13:06;;;;;;;3.90;1.30;;;13.50;96.40;;;;;;10061661;28;20016;-63
2023/03/25 20:17:58;;;;;;;2.50;1.50;;;13.40;96.40;;;;;;10061035;28;20377;-64
2023/03/25 20:22:48;;;;;;;4.35;1.40;;;13.40;96.50;;;;;;10061228;28;20056;-63
2023/03/25 20:27:40;;;;;;;3.25;1.33;;;13.30;96.50;;;;;;10063693;28;20107;-63
2023/03/25 20:32:31;;;;;;;2.40;1.13;;;13.20;96.60;;;;;;10061876;28;20022;-64
2023/03/25 20:37:22;;;;;;;2.60;1.48;;;13.10;96.50;;;;;;10059752;28;20052;-64
2023/03/25 20:42:12;;;;;;;5.70;1.20;;;13.10;96.50;;;;;;10060420;28;20033;-63
2023/03/25 20:47:04;;;;;;;3.00;0.82;;;13.10;96.50;;;;;;10061587;28;20120;-63
2023/03/25 20:51:56;;;;;;;3.92;1.23;;;13.10;96.50;;;;;;10060448;28;20025;-64
2023/03/25 20:56:46;;;;;;;2.10;0.80;;;13.10;96.40;;;;;;10059484;28;20407;-62
2023/03/25 21:01:37;;;;;;;2.33;0.77;;;13.10;96.40;;;;;;10058248;28;20045;-64
2023/03/25 21:06:28;;;;;;;2.85;2.25;;;13.10;96.30;;;;;;10059014;28;20116;-64
2023/03/25 21:11:19;;;;;;;4.35;0.98;;;13.10;96.30;;;;;;10059378;28;20030;-63
2023/03/25 21:16:10;;;;;;;2.80;1.08;;;13.10;96.30;;;;;;10065217;28;20025;-62
2023/03/25 21:21:02;;;;;;;1.80;0.80;;;13.10;96.30;;;;;;10057917;28;20048;-63
2023/03/25 21:25:55;;;;;;;3.85;0.77;;;13.10;96.30;;;;;;10064485;28;20129;-64
2023/03/25 21:30:47;;;;;;;4.50;1.30;;;13.20;96.30;;;;;;10046016;28;20029;-64
2023/03/25 21:35:38;;;;;;;4.00;1.33;;;13.30;96.20;;;;;;10056510;28;20036;-64
2023/03/25 21:40:28;;;;;;;1.40;0.90;;;13.20;96.10;;;;;;10063463;28;20101;-64
2023/03/25 21:45:19;;;;;;;2.92;1.30;;;13.10;96.10;;;;;;10057990;28;20029;-65
2023/03/25 21:50:11;;;;;;;3.90;1.10;;;13.10;96.10;;;;;;10057583;28;20108;-64
2023/03/25 21:55:02;;;;;;;4.00;1.85;;;13.10;96.10;;;;;;10045286;28;20026;-64
2023/03/25 21:59:54;;;;;;;4.72;1.58;;;12.90;96.10;;;;;;10057034;28;20095;-64
2023/03/25 22:04:44;;;;;;;4.38;1.25;;;12.80;96.20;;;;;;10058204;28;20030;-63
2023/03/25 22:09:35;;;;;;;1.75;1.17;;;12.80;96.20;;;;;;10060559;28;20032;-66
2023/03/25 22:14:26;;;;;;;2.67;1.10;;;12.60;96.20;;;;;;10056500;28;20032;-63
2023/03/25 22:19:16;;;;;;;3.05;1.00;;;12.60;96.10;;;;;;10057166;28;20042;-63
2023/03/25 22:24:07;;;;;;;2.78;1.30;;;12.50;96.10;;;;;;10058702;28;20149;-63
2023/03/25 22:29:00;;;;;;;3.28;1.48;;;12.50;96.10;;;;;;10056066;28;20163;-64
2023/03/25 22:33:53;;;;;;;2.72;0.93;;;12.50;96.10;;;;;;10056166;28;20156;-64
2023/03/25 22:38:47;;;;;;;3.50;1.33;;;12.50;96.00;;;;;;10058477;28;20025;-63
2023/03/25 22:43:38;;;;;;;1.58;1.30;;;12.50;96.00;;;;;;10055975;28;20029;-63
2023/03/25 22:48:29;;;;;;;1.85;1.20;;;12.50;96.10;;;;;;10055288;28;20515;-64
2023/03/25 22:53:20;;;;;;;5.40;1.38;;;12.50;96.10;;;;;;10056298;28;20030;-63
2023/03/25 22:58:11;;;;;;;3.15;1.42;;;12.50;96.20;;;;;;10059482;28;20131;-63
2023/03/25 23:03:02;;;;;;;1.52;1.33;;;12.50;96.20;;;;;;10068630;28;20064;-66
2023/03/25 23:07:52;;;;;;;3.00;1.00;;;12.60;96.20;;;;;;10075305;28;20017;-66
2023/03/25 23:12:43;;;;;;;4.68;1.30;;;12.50;96.20;;;;;;10068200;28;20029;-63
2023/03/25 23:17:34;;;;;;;3.92;1.05;;;12.50;96.20;;;;;;10067946;28;20137;-63
2023/03/25 23:22:24;;;;;;;1.58;0.68;;;12.50;96.30;;;;;;10077764;28;20025;-63
2023/03/25 23:27:15;;;;;;;2.17;0.98;;;12.60;96.30;;;;;;10070284;28;20108;-64
2023/03/25 23:32:07;;;;;;;4.07;0.85;;;12.60;96.40;;;;;;10067212;28;20017;-62
2023/03/25 23:36:58;;;;;;;5.10;1.10;;;12.50;96.50;;;;;;10068966;28;20530;-63
2023/03/25 23:41:50;;;;;;;1.88;1.38;;;12.50;96.60;;;;;;10067652;28;20021;-62
2023/03/25 23:46:40;;;;;;;3.80;0.80;;;12.50;96.70;;;;;;10067626;28;20021;-64
2023/03/25 23:51:35;;;;;;;1.73;0.80;;;12.50;96.80;;;;;;10068066;28;20021;-63
2023/03/25 23:56:25;;;;;;;4.97;1.20;;;12.50;96.90;;;;;;10066897;28;20458;-63
